Time;durP1;ratioP1;P1;durP2;ratioP2;P2;SDS_P1;SDS_P2;PMS_P1;PMS_P2;Temp;Humidity;BMP_temperature;BMP_pressure;BME280_temperature;BME280_humidity;BME280_pressure;Samples;Min_cycle;Max_cycle;Signal;HPM_P1;HPM_P2
2023/02/17 00:00:06;;;;;;;23.40;13.00;;;8.80;99.90;;;;;;4972949;28;20034;-44
2023/02/17 00:02:32;;;;;;;21.42;13.73;;;8.80;99.90;;;;;;4973358;28;20034;-45
2023/02/17 00:04:58;;;;;;;19.33;13.82;;;8.90;99.90;;;;;;4972841;28;20027;-50
2023/02/17 00:07:24;;;;;;;17.70;12.85;;;8.90;99.90;;;;;;4973006;28;20549;-45
2023/02/17 00:09:49;;;;;;;17.17;12.50;;;8.90;99.90;;;;;;4973060;28;20023;-44
2023/02/17 00:12:14;;;;;;;19.27;12.82;;;8.90;99.90;;;;;;4972900;28;20082;-47
2023/02/17 00:14:40;;;;;;;21.60;12.70;;;8.90;99.90;;;;;;4972409;28;20057;-44
2023/02/17 00:17:06;;;;;;;19.52;11.90;;;9.10;99.90;;;;;;4972911;28;20110;-46
2023/02/17 00:19:31;;;;;;;17.33;11.90;;;9.10;99.90;;;;;;4972842;28;20031;-45
2023/02/17 00:22:01;;;;;;;18.27;11.77;;;9.20;99.90;;;;;;4972699;28;20035;-46
2023/02/17 00:24:29;;;;;;;16.42;12.15;;;9.30;99.90;;;;;;4972760;28;20043;-46
2023/02/17 00:26:55;;;;;;;18.20;11.25;;;9.30;99.90;;;;;;4972640;28;20023;-50
2023/02/17 00:29:21;;;;;;;14.13;10.35;;;9.40;99.90;;;;;;4972654;28;20100;-48
2023/02/17 00:31:47;;;;;;;17.55;10.80;;;9.40;99.90;;;;;;4971291;28;20031;-47
2023/02/17 00:34:15;;;;;;;20.27;12.07;;;9.50;99.90;;;;;;4971224;28;20454;-45
2023/02/17 00:36:41;;;;;;;18.58;10.35;;;9.50;99.90;;;;;;4972423;28;20030;-45
2023/02/17 00:39:06;;;;;;;18.45;11.20;;;9.60;99.90;;;;;;4972491;28;20101;-45
2023/02/17 00:41:32;;;;;;;17.42;11.65;;;9.60;99.90;;;;;;4972492;28;20081;-46
2023/02/17 00:43:58;;;;;;;21.58;11.32;;;9.60;99.90;;;;;;4972375;28;20402;-49
2023/02/17 00:46:25;;;;;;;21.02;11.93;;;9.60;99.90;;;;;;4972333;28;20026;-45
2023/02/17 00:48:50;;;;;;;17.02;10.15;;;9.60;99.90;;;;;;4972486;28;20034;-46
2023/02/17 00:51:17;;;;;;;19.95;10.50;;;9.70;99.90;;;;;;4972513;28;20034;-44
2023/02/17 00:53:43;;;;;;;19.80;10.93;;;9.70;99.90;;;;;;4972343;28;20088;-47
2023/02/17 00:56:09;;;;;;;15.95;9.95;;;9.70;99.90;;;;;;4972008;28;20493;-45
2023/02/17 00:58:35;;;;;;;15.18;10.10;;;9.60;99.90;;;;;;4971193;28;20075;-48
2023/02/17 01:01:01;;;;;;;15.35;11.27;;;9.70;99.90;;;;;;4972312;28;20045;-46
2023/02/17 01:03:27;;;;;;;15.60;9.98;;;9.70;99.90;;;;;;4970891;28;20033;-47
2023/02/17 01:05:54;;;;;;;17.42;10.10;;;9.70;99.90;;;;;;4972170;28;20027;-48
2023/02/17 01:08:21;;;;;;;16.85;11.10;;;9.70;99.90;;;;;;4970853;28;20031;-46
2023/02/17 01:10:49;;;;;;;13.93;10.27;;;9.70;99.90;;;;;;4972400;28;20109;-44
2023/02/17 01:13:15;;;;;;;14.95;11.10;;;9.70;99.90;;;;;;4972408;28;20557;-42
2023/02/17 01:15:45;;;;;;;15.75;10.77;;;9.70;99.90;;;;;;4972405;28;20043;-51
2023/02/17 01:18:11;;;;;;;16.67;10.93;;;9.70;99.90;;;;;;4972309;28;20455;-48
2023/02/17 01:20:38;;;;;;;20.20;10.70;;;9.80;99.90;;;;;;4972312;28;20062;-47
2023/02/17 01:23:05;;;;;;;21.40;10.52;;;9.80;99.90;;;;;;4971972;28;20026;-44
2023/02/17 01:25:35;;;;;;;20.05;10.68;;;9.70;99.90;;;;;;4973316;28;20101;-45
2023/02/17 01:28:00;;;;;;;20.23;10.68;;;9.80;99.90;;;;;;4975777;28;20122;-46
2023/02/17 01:30:25;;;;;;;21.52;10.68;;;9.80;99.90;;;;;;4974557;28;20058;-46
2023/02/17 01:32:51;;;;;;;15.50;11.38;;;9.90;99.90;;;;;;4974305;28;20033;-46
2023/02/17 01:35:17;;;;;;;16.35;10.93;;;9.90;99.90;;;;;;4975448;28;20027;-45
2023/02/17 01:37:42;;;;;;;12.95;10.32;;;10.00;99.90;;;;;;4975608;28;20391;-46
2023/02/17 01:40:08;;;;;;;17.10;10.93;;;10.00;99.90;;;;;;4975656;28;20054;-49
2023/02/17 01:42:33;;;;;;;16.65;9.90;;;10.10;99.90;;;;;;4975502;28;20082;-46
2023/02/17 01:45:17;;;;;;;15.55;10.23;;;10.10;99.90;;;;;;4975403;28;20030;-46
2023/02/17 01:48:04;;;;;;;15.48;10.63;;;10.20;99.90;;;;;;4975400;28;20031;-45
2023/02/17 01:50:54;;;;;;;20.67;10.00;;;10.20;99.90;;;;;;4975087;28;20117;-45
2023/02/17 01:53:25;;;;;;;17.17;10.80;;;10.20;99.90;;;;;;4975345;28;20041;-44
2023/02/17 01:55:51;;;;;;;17.48;9.68;;;10.20;99.90;;;;;;4974908;28;20034;-47
2023/02/17 01:58:20;;;;;;;16.17;9.57;;;10.20;99.90;;;;;;4975439;28;20031;-45
2023/02/17 02:00:47;;;;;;;16.23;10.98;;;10.20;99.90;;;;;;4975276;28;20027;-44
2023/02/17 02:03:13;;;;;;;15.82;10.10;;;10.20;99.90;;;;;;4974934;28;20035;-52
2023/02/17 02:05:40;;;;;;;14.35;9.73;;;10.20;99.90;;;;;;4974934;28;20120;-46
2023/02/17 02:08:07;;;;;;;16.48;10.15;;;10.20;99.90;;;;;;4975072;28;20066;-44
2023/02/17 02:10:33;;;;;;;20.05;10.05;;;10.20;99.90;;;;;;4975001;28;20033;-44
2023/02/17 02:12:58;;;;;;;13.95;9.57;;;10.20;99.90;;;;;;4974831;28;20030;-45
2023/02/17 02:15:29;;;;;;;17.15;9.85;;;10.20;99.90;;;;;;4973483;28;20042;-44
2023/02/17 02:18:22;;;;;;;12.52;8.90;;;10.20;99.90;;;;;;4974789;28;20023;-42
2023/02/17 02:21:17;;;;;;;14.00;9.40;;;10.10;99.90;;;;;;4974830;28;20034;-45
2023/02/17 02:24:34;;;;;;;19.15;10.48;;;10.10;99.90;;;;;;4973267;28;20133;-45
2023/02/17 02:27:32;;;;;;;22.38;10.27;;;10.00;99.90;;;;;;4952220;28;20121;-47
2023/02/17 02:30:22;;;;;;;13.90;10.15;;;10.00;99.90;;;;;;4974802;28;20470;-44
2023/02/17 02:32:53;;;;;;;22.35;10.00;;;10.00;99.90;;;;;;4973354;28;20384;-48
2023/02/17 02:35:47;;;;;;;14.52;8.90;;;9.90;99.90;;;;;;4973051;28;20026;-46
2023/02/17 02:38:31;;;;;;;13.20;10.00;;;9.90;99.90;;;;;;4970677;28;20039;-42
2023/02/17 02:41:22;;;;;;;13.90;9.35;;;9.90;99.90;;;;;;4973308;28;20500;-44
2023/02/17 02:43:48;;;;;;;17.98;10.75;;;9.80;99.90;;;;;;4972958;28;20027;-46
2023/02/17 02:46:15;;;;;;;13.90;9.73;;;9.90;99.90;;;;;;4974394;28;20057;-50
2023/02/17 02:48:41;;;;;;;14.23;10.18;;;9.90;99.90;;;;;;4973193;28;20030;-46
2023/02/17 02:51:34;;;;;;;18.45;9.77;;;9.90;99.90;;;;;;4975193;28;20027;-45
2023/02/17 02:54:14;;;;;;;17.30;9.57;;;9.80;99.90;;;;;;4975974;28;20435;-46
2023/02/17 02:57:31;;;;;;;14.63;9.38;;;9.80;99.90;;;;;;4975462;28;20057;-44
2023/02/17 02:59:56;;;;;;;;;;;9.80;99.90;;;;;;4953808;28;20024;-50
2023/02/17 03:03:00;;;;;;;15.75;8.80;;;9.80;99.90;;;;;;4972092;28;20294;-46
2023/02/17 03:05:44;;;;;;;13.80;9.82;;;9.80;99.90;;;;;;4973142;28;20090;-48
2023/02/17 03:08:16;;;;;;;12.27;9.30;;;9.80;99.90;;;;;;4974009;28;20018;-46
2023/02/17 03:10:51;;;;;;;13.30;9.88;;;9.80;99.90;;;;;;4972705;28;20035;-44
2023/02/17 03:13:18;;;;;;;12.20;9.35;;;9.70;99.90;;;;;;4972542;28;20034;-46
2023/02/17 03:15:43;;;;;;;13.35;9.18;;;9.80;99.90;;;;;;4973710;28;20406;-48
2023/02/17 03:18:09;;;;;;;16.52;9.85;;;9.80;99.90;;;;;;4972742;28;20030;-44
2023/02/17 03:20:38;;;;;;;12.73;9.30;;;9.80;99.90;;;;;;4973977;28;20213;-50
2023/02/17 03:23:05;;;;;;;17.83;10.68;;;9.80;99.90;;;;;;4973602;28;20031;-51
2023/02/17 03:25:30;;;;;;;11.95;9.20;;;9.80;99.90;;;;;;4972217;28;20019;-46
2023/02/17 03:27:56;;;;;;;16.25;10.32;;;9.90;99.90;;;;;;4972357;28;20019;-43
2023/02/17 03:30:21;;;;;;;15.60;10.10;;;9.90;99.90;;;;;;4973516;28;20031;-44
2023/02/17 03:32:47;;;;;;;19.60;11.18;;;9.90;99.90;;;;;;4972446;28;20395;-44
2023/02/17 03:35:13;;;;;;;12.93;9.45;;;10.00;99.90;;;;;;4973273;28;20062;-45
2023/02/17 03:37:38;;;;;;;15.43;8.95;;;10.00;99.90;;;;;;4973359;28;20509;-47
2023/02/17 03:40:06;;;;;;;13.05;8.98;;;10.00;99.90;;;;;;4973593;28;20030;-45
2023/02/17 03:42:31;;;;;;;20.48;9.27;;;10.10;99.90;;;;;;4973220;28;20371;-42
2023/02/17 03:44:57;;;;;;;19.33;10.90;;;10.10;99.90;;;;;;4973033;28;20023;-45
2023/02/17 03:47:22;;;;;;;15.27;9.75;;;10.10;99.90;;;;;;4972985;28;20368;-49
2023/02/17 03:49:48;;;;;;;16.48;9.32;;;10.10;99.90;;;;;;4972904;28;20030;-45
2023/02/17 03:52:13;;;;;;;11.70;8.98;;;10.20;99.90;;;;;;4971764;28;20058;-44
2023/02/17 03:54:39;;;;;;;15.20;9.65;;;10.20;99.90;;;;;;4972967;28;20038;-45
2023/02/17 03:57:04;;;;;;;16.45;9.48;;;10.20;99.90;;;;;;4972743;28;20490;-45
2023/02/17 03:59:30;;;;;;;17.35;9.35;;;10.20;99.90;;;;;;4973061;28;20027;-44
2023/02/17 04:01:55;;;;;;;14.05;8.60;;;10.20;99.90;;;;;;4972930;28;20393;-47
2023/02/17 04:04:21;;;;;;;13.48;9.18;;;10.20;99.90;;;;;;4972870;28;20705;-49
2023/02/17 04:06:46;;;;;;;15.52;9.65;;;10.20;99.90;;;;;;4971808;28;20026;-48
2023/02/17 04:09:12;;;;;;;15.52;9.27;;;10.20;99.90;;;;;;4973092;28;20117;-44
2023/02/17 04:11:37;;;;;;;16.98;9.40;;;10.20;99.90;;;;;;4972845;28;20109;-46
2023/02/17 04:14:03;;;;;;;14.57;9.05;;;10.20;99.90;;;;;;4972790;28;20035;-45
2023/02/17 04:16:29;;;;;;;13.02;9.20;;;10.20;99.90;;;;;;4971306;28;20030;-44
2023/02/17 04:18:54;;;;;;;16.00;8.93;;;10.20;99.90;;;;;;4972726;28;20031;-45
2023/02/17 04:21:20;;;;;;;18.67;10.20;;;10.20;99.90;;;;;;4972764;28;20371;-45
2023/02/17 04:23:45;;;;;;;17.30;8.80;;;10.20;99.90;;;;;;4972567;28;20030;-44
2023/02/17 04:26:11;;;;;;;13.02;9.27;;;10.20;99.90;;;;;;4972556;28;20031;-44
2023/02/17 04:28:39;;;;;;;15.20;9.25;;;10.20;99.90;;;;;;4971129;28;20023;-44
2023/02/17 04:31:04;;;;;;;11.27;8.05;;;10.20;99.90;;;;;;4972450;28;20110;-49
2023/02/17 04:33:30;;;;;;;12.48;8.65;;;10.10;99.90;;;;;;4971237;28;20109;-48
2023/02/17 04:35:58;;;;;;;12.50;8.25;;;10.20;99.90;;;;;;4972478;28;20031;-43
2023/02/17 04:38:28;;;;;;;10.43;8.15;;;10.20;99.90;;;;;;4972631;28;20114;-47
2023/02/17 04:40:55;;;;;;;10.68;7.68;;;10.20;99.90;;;;;;4972817;28;20114;-45
2023/02/17 04:43:22;;;;;;;11.85;7.15;;;10.20;99.90;;;;;;4972154;28;20031;-48
2023/02/17 04:45:48;;;;;;;10.60;7.78;;;10.20;99.90;;;;;;4970745;28;20023;-43
2023/02/17 04:48:13;;;;;;;16.08;7.38;;;10.20;99.90;;;;;;4972509;28;20030;-44
2023/02/17 04:50:39;;;;;;;12.48;7.10;;;10.20;99.90;;;;;;4972466;28;20387;-46
2023/02/17 04:53:05;;;;;;;14.93;7.88;;;10.20;99.90;;;;;;4972309;28;20379;-44
2023/02/17 04:55:32;;;;;;;11.73;7.85;;;10.20;99.90;;;;;;4972037;28;20031;-45
2023/02/17 04:57:57;;;;;;;10.48;7.80;;;10.20;99.90;;;;;;4971996;28;20506;-45
2023/02/17 05:00:23;;;;;;;12.85;7.25;;;10.20;99.90;;;;;;4975047;28;20133;-44
2023/02/17 05:02:48;;;;;;;11.23;7.45;;;10.20;99.90;;;;;;4974398;28;20031;-46
2023/02/17 05:05:17;;;;;;;12.35;8.00;;;10.20;99.90;;;;;;4975911;28;20431;-44
2023/02/17 05:07:43;;;;;;;11.27;6.93;;;10.20;99.90;;;;;;4976313;28;20069;-44
2023/02/17 05:10:09;;;;;;;11.02;6.78;;;10.20;99.90;;;;;;4976111;28;20034;-44
2023/02/17 05:12:34;;;;;;;10.65;7.95;;;10.30;99.90;;;;;;4974654;28;20495;-45
2023/02/17 05:15:00;;;;;;;9.15;7.63;;;10.20;99.90;;;;;;4974670;28;20671;-47
2023/02/17 05:17:26;;;;;;;13.05;7.03;;;10.20;99.90;;;;;;4974792;28;20026;-51
2023/02/17 05:19:51;;;;;;;11.25;6.90;;;10.20;99.90;;;;;;4974580;28;20033;-44
2023/02/17 05:22:17;;;;;;;8.15;6.18;;;10.20;99.90;;;;;;4975796;28;20035;-46
2023/02/17 05:24:42;;;;;;;8.57;6.53;;;10.20;99.90;;;;;;4975689;28;20046;-43
2023/02/17 05:27:08;;;;;;;10.93;7.60;;;10.20;99.90;;;;;;4975655;28;20402;-43
2023/02/17 05:29:33;;;;;;;9.65;7.32;;;10.20;99.90;;;;;;4975922;28;20090;-45
2023/02/17 05:31:59;;;;;;;7.85;6.95;;;10.20;99.90;;;;;;4974473;28;20499;-44
2023/02/17 05:34:24;;;;;;;9.82;6.88;;;10.30;99.90;;;;;;4975450;28;20448;-46
2023/02/17 05:36:50;;;;;;;8.23;5.68;;;10.30;99.90;;;;;;4975495;28;20153;-46
2023/02/17 05:39:15;;;;;;;7.57;6.22;;;10.20;99.90;;;;;;4975570;28;20034;-46
2023/02/17 05:41:41;;;;;;;7.88;6.32;;;10.20;99.90;;;;;;4975304;28;20595;-47
2023/02/17 05:44:07;;;;;;;8.68;6.93;;;10.20;99.90;;;;;;4975357;28;20113;-43
2023/02/17 05:46:32;;;;;;;6.97;6.00;;;10.30;99.90;;;;;;4973946;28;20015;-46
2023/02/17 05:48:57;;;;;;;6.80;6.03;;;10.30;99.90;;;;;;4975441;28;20438;-44
2023/02/17 05:51:23;;;;;;;6.00;5.40;;;10.30;99.90;;;;;;4973978;28;20027;-47
2023/02/17 05:53:48;;;;;;;8.00;6.00;;;10.30;99.90;;;;;;4975128;28;20034;-44
2023/02/17 05:56:14;;;;;;;6.68;5.47;;;10.20;99.90;;;;;;4974681;28;20508;-42
2023/02/17 05:58:40;;;;;;;7.05;5.65;;;10.20;99.90;;;;;;4975267;28;20062;-45
2023/02/17 06:01:10;;;;;;;8.73;5.88;;;10.30;99.90;;;;;;4974924;28;20065;-47
2023/02/17 06:03:35;;;;;;;9.13;6.00;;;10.30;99.90;;;;;;4975391;28;20034;-50
2023/02/17 06:06:01;;;;;;;6.60;5.88;;;10.30;99.90;;;;;;4975014;28;20023;-44
2023/02/17 06:08:27;;;;;;;6.15;5.20;;;10.30;99.90;;;;;;4975160;28;20390;-49
2023/02/17 06:10:52;;;;;;;7.75;5.93;;;10.30;99.90;;;;;;4974586;28;20093;-47
2023/02/17 06:13:18;;;;;;;7.25;6.15;;;10.30;99.90;;;;;;4975140;28;20031;-45
2023/02/17 06:15:44;;;;;;;5.63;5.10;;;10.30;99.90;;;;;;4975127;28;20022;-46
2023/02/17 06:18:09;;;;;;;6.72;5.38;;;10.30;99.90;;;;;;4975108;28;20129;-46
2023/02/17 06:20:34;;;;;;;11.35;5.47;;;10.30;99.90;;;;;;4974960;28;20030;-47
2023/02/17 06:23:00;;;;;;;5.93;5.35;;;10.30;99.90;;;;;;4974799;28;20133;-50
2023/02/17 06:25:26;;;;;;;6.82;5.00;;;10.30;99.90;;;;;;4974716;28;20027;-46
2023/02/17 06:27:52;;;;;;;6.50;5.38;;;10.30;99.90;;;;;;4973702;28;20019;-46
2023/02/17 06:30:17;;;;;;;9.43;5.57;;;10.30;99.90;;;;;;4974566;28;20431;-46
2023/02/17 06:32:43;;;;;;;6.63;4.93;;;10.30;99.90;;;;;;4974607;28;20023;-47
2023/02/17 06:35:08;;;;;;;6.43;4.80;;;10.30;99.90;;;;;;4974414;28;20035;-46
2023/02/17 06:37:34;;;;;;;5.47;4.97;;;10.20;99.90;;;;;;4973249;28;20026;-48
2023/02/17 06:39:59;;;;;;;5.20;4.72;;;10.20;99.90;;;;;;4974562;28;20031;-44
2023/02/17 06:42:25;;;;;;;5.10;4.50;;;10.20;99.90;;;;;;4974545;28;20031;-47
2023/02/17 06:44:50;;;;;;;5.80;5.13;;;10.20;99.90;;;;;;4975068;28;20566;-46
2023/02/17 06:47:16;;;;;;;5.65;4.93;;;10.30;99.90;;;;;;4973171;28;20029;-46
2023/02/17 06:49:41;;;;;;;7.25;5.38;;;10.30;99.90;;;;;;4974147;28;20023;-43
2023/02/17 06:52:07;;;;;;;5.53;4.78;;;10.30;99.90;;;;;;4973975;28;20093;-44
2023/02/17 06:54:33;;;;;;;4.90;4.43;;;10.30;99.90;;;;;;4974012;28;20026;-49
2023/02/17 06:56:58;;;;;;;8.38;4.45;;;10.30;99.90;;;;;;4973906;28;20027;-45
2023/02/17 06:59:24;;;;;;;6.20;4.63;;;10.30;99.90;;;;;;4974159;28;20033;-46
2023/02/17 07:01:49;;;;;;;5.00;4.53;;;10.30;99.90;;;;;;4973922;28;20038;-44
2023/02/17 07:04:15;;;;;;;7.80;5.18;;;10.30;99.90;;;;;;4972499;28;20086;-46
2023/02/17 07:06:41;;;;;;;5.20;4.60;;;10.40;99.90;;;;;;4973877;28;20023;-45
2023/02/17 07:09:07;;;;;;;5.80;5.07;;;10.30;99.90;;;;;;4974112;28;20110;-45
2023/02/17 07:11:32;;;;;;;4.70;4.30;;;10.40;99.90;;;;;;4974552;28;20081;-46
2023/02/17 07:13:59;;;;;;;5.38;4.68;;;10.30;99.90;;;;;;4973858;28;20101;-42
2023/02/17 07:16:24;;;;;;;6.15;4.25;;;10.30;99.90;;;;;;4973853;28;20031;-48
2023/02/17 07:18:50;;;;;;;4.80;4.38;;;10.30;99.90;;;;;;4973696;28;20520;-43
2023/02/17 07:21:16;;;;;;;5.90;4.03;;;10.40;99.90;;;;;;4973589;28;20070;-44
2023/02/17 07:23:41;;;;;;;4.50;4.10;;;10.40;99.90;;;;;;4972532;28;20054;-45
2023/02/17 07:26:10;;;;;;;4.32;3.92;;;10.30;99.90;;;;;;4973576;28;20232;-45
2023/02/17 07:28:38;;;;;;;4.38;3.97;;;10.30;99.90;;;;;;4973577;28;20026;-44
2023/02/17 07:31:13;;;;;;;4.53;4.13;;;10.30;99.90;;;;;;4973449;28;20031;-45
2023/02/17 07:33:39;;;;;;;;;;;10.40;99.90;;;;;;4973815;28;20030;-47
2023/02/17 07:36:06;;;;;;;;;;;10.40;99.90;;;;;;4973711;28;19989;-47
2023/02/17 07:38:31;;;;;;;5.28;3.97;;;10.40;99.90;;;;;;4973396;28;19906;-46
2023/02/17 07:41:13;;;;;;;3.95;3.65;;;10.50;99.90;;;;;;4973276;28;20104;-47
2023/02/17 07:43:38;;;;;;;7.68;4.20;;;10.50;99.90;;;;;;4973216;28;20034;-45
2023/02/17 07:46:05;;;;;;;4.32;3.03;;;10.50;99.90;;;;;;4973223;28;20035;-45
2023/02/17 07:48:31;;;;;;;3.95;3.65;;;10.60;99.90;;;;;;4972089;28;20398;-45
2023/02/17 07:50:56;;;;;;;4.50;4.10;;;10.60;99.90;;;;;;4972229;28;20034;-46
2023/02/17 07:53:22;;;;;;;4.68;3.53;;;10.60;99.90;;;;;;4973105;28;20031;-45
2023/02/17 07:55:47;;;;;;;4.13;3.20;;;10.60;99.90;;;;;;4972614;28;20483;-48
2023/02/17 07:58:13;;;;;;;4.13;3.33;;;10.60;99.90;;;;;;4973089;28;20026;-43
2023/02/17 08:00:38;;;;;;;3.42;3.13;;;10.70;99.90;;;;;;4973033;28;20034;-45
2023/02/17 08:03:04;;;;;;;3.30;3.00;;;10.80;99.90;;;;;;4973101;28;20047;-49
2023/02/17 08:05:30;;;;;;;3.42;3.17;;;10.80;99.90;;;;;;4972809;28;20024;-46
2023/02/17 08:13:26;;;;;;;4.03;3.63;;;10.80;99.90;;;;;;4972936;28;20037;-47
2023/02/17 08:15:51;;;;;;;4.13;3.70;;;10.80;99.90;;;;;;4987689;28;20054;-50
2023/02/17 08:18:17;;;;;;;4.82;3.30;;;10.80;99.90;;;;;;4992022;28;20069;-47
2023/02/17 08:20:43;;;;;;;3.30;3.00;;;10.80;99.90;;;;;;4991992;28;20034;-50
2023/02/17 08:23:08;;;;;;;3.28;3.08;;;10.80;99.90;;;;;;4992195;28;20031;-52
2023/02/17 08:25:35;;;;;;;3.58;3.28;;;10.80;99.90;;;;;;4991248;28;20034;-48
2023/02/17 08:28:03;;;;;;;2.78;2.58;;;10.80;99.90;;;;;;4991311;28;20114;-46
2023/02/17 08:30:28;;;;;;;2.95;2.75;;;10.80;99.90;;;;;;4987715;28;20080;-47
2023/02/17 08:32:54;;;;;;;3.22;3.03;;;10.80;99.90;;;;;;4991487;28;20442;-46
2023/02/17 08:35:21;;;;;;;3.70;3.40;;;10.80;99.90;;;;;;4991427;28;20030;-44
2023/02/17 08:37:48;;;;;;;3.58;3.28;;;10.80;99.90;;;;;;4991865;28;20050;-49
2023/02/17 08:40:13;;;;;;;3.28;3.08;;;10.90;99.90;;;;;;4991806;28;20073;-49
2023/02/17 08:42:39;;;;;;;3.92;3.63;;;10.80;99.90;;;;;;4990654;28;20502;-46
2023/02/17 08:45:05;;;;;;;3.63;3.33;;;10.90;99.90;;;;;;4991679;28;20031;-45
2023/02/17 08:47:30;;;;;;;3.58;3.28;;;11.00;99.90;;;;;;4990601;28;20509;-45
2023/02/17 08:49:56;;;;;;;3.30;3.00;;;11.00;99.90;;;;;;4991832;28;20117;-49
2023/02/17 08:52:21;;;;;;;3.22;2.92;;;11.00;99.90;;;;;;4991813;28;20030;-46
2023/02/17 08:54:46;;;;;;;4.13;3.70;;;11.10;99.90;;;;;;4991622;28;20057;-47
2023/02/17 08:57:12;;;;;;;3.55;3.28;;;11.10;99.90;;;;;;4992153;28;20041;-52
2023/02/17 08:59:38;;;;;;;4.55;3.90;;;11.10;99.90;;;;;;4992119;28;20069;-45
2023/02/17 09:02:03;;;;;;;4.88;4.32;;;11.10;99.90;;;;;;4991726;28;20480;-48
2023/02/17 09:04:29;;;;;;;4.30;3.90;;;11.10;99.90;;;;;;4991981;28;20022;-45
2023/02/17 09:06:55;;;;;;;5.00;4.00;;;11.00;99.90;;;;;;4991717;28;20082;-51
2023/02/17 09:09:25;;;;;;;5.57;4.43;;;11.00;99.90;;;;;;4992004;28;20406;-47
2023/02/17 09:11:52;;;;;;;4.93;4.43;;;11.00;99.90;;;;;;4991871;28;20019;-50
2023/02/17 09:14:18;;;;;;;5.30;4.80;;;11.00;99.90;;;;;;4991228;28;20097;-44
2023/02/17 09:16:43;;;;;;;6.70;4.80;;;11.00;99.90;;;;;;4985708;28;20022;-44
2023/02/17 09:19:09;;;;;;;6.28;5.25;;;11.00;99.90;;;;;;4984225;28;20061;-47
2023/02/17 09:21:34;;;;;;;5.60;5.10;;;11.10;99.90;;;;;;4987464;28;20088;-47
2023/02/17 09:24:00;;;;;;;5.97;5.35;;;11.10;99.90;;;;;;4984678;28;20045;-46
2023/02/17 09:26:26;;;;;;;7.05;5.45;;;11.10;99.90;;;;;;4988260;28;20077;-45
2023/02/17 09:28:51;;;;;;;7.63;5.65;;;11.10;99.90;;;;;;4982382;28;20463;-45
2023/02/17 09:31:21;;;;;;;8.45;5.50;;;11.00;99.90;;;;;;4971698;28;20035;-45
2023/02/17 09:33:48;;;;;;;8.05;6.38;;;11.00;99.90;;;;;;4981109;28;20058;-45
2023/02/17 09:36:17;;;;;;;6.07;5.47;;;11.00;99.90;;;;;;4991734;28;20038;-45
2023/02/17 09:38:44;;;;;;;7.63;6.50;;;11.00;99.90;;;;;;4991805;28;20042;-50
2023/02/17 09:41:30;;;;;;;8.65;6.30;;;10.90;99.90;;;;;;4991380;28;20050;-49
2023/02/17 09:43:57;;;;;;;6.57;5.90;;;10.90;99.90;;;;;;4991030;28;20058;-49
2023/02/17 09:46:31;;;;;;;8.23;5.97;;;10.90;99.90;;;;;;4991341;28;20061;-47
2023/02/17 09:49:10;;;;;;;9.77;6.70;;;10.90;99.90;;;;;;4993937;28;20080;-44
2023/02/17 09:51:50;;;;;;;7.70;6.35;;;10.90;99.90;;;;;;4995053;28;20092;-44
2023/02/17 09:54:28;;;;;;;8.50;7.00;;;10.90;99.90;;;;;;4995003;28;20026;-44
2023/02/17 09:56:55;;;;;;;8.68;6.32;;;10.90;99.90;;;;;;4994567;28;20498;-46
2023/02/17 09:59:37;;;;;;;7.65;6.30;;;10.90;99.90;;;;;;4994888;28;20030;-52
2023/02/17 10:02:24;;;;;;;6.75;6.05;;;10.90;99.90;;;;;;4993215;28;20452;-48
2023/02/17 10:04:52;;;;;;;6.57;5.90;;;10.90;99.90;;;;;;4994200;28;20445;-51
2023/02/17 10:07:31;;;;;;;7.50;6.70;;;11.00;99.90;;;;;;4994837;28;20114;-49
2023/02/17 10:10:03;;;;;;;7.28;6.57;;;11.00;99.90;;;;;;4994749;28;20039;-49
2023/02/17 10:12:40;;;;;;;7.35;6.65;;;11.00;99.90;;;;;;4990734;28;20033;-50
2023/02/17 10:15:16;;;;;;;7.25;6.10;;;11.10;99.90;;;;;;4994086;28;20023;-47
2023/02/17 10:18:09;;;;;;;10.43;6.13;;;11.10;99.90;;;;;;4994695;28;20161;-49
2023/02/17 10:20:40;;;;;;;7.43;6.32;;;11.10;99.90;;;;;;4994395;28;20026;-49
2023/02/17 10:23:12;;;;;;;7.88;6.70;;;11.20;99.90;;;;;;4994201;28;20422;-49
2023/02/17 10:25:55;;;;;;;6.68;5.93;;;11.20;99.90;;;;;;4994286;28;20084;-46
2023/02/17 10:28:27;;;;;;;7.10;6.22;;;11.20;99.90;;;;;;4989487;28;20029;-49
2023/02/17 10:31:09;;;;;;;7.15;6.45;;;11.20;99.90;;;;;;4994256;28;20109;-47
2023/02/17 10:33:54;;;;;;;7.68;6.40;;;11.40;99.90;;;;;;4993630;28;20545;-49
2023/02/17 10:36:42;;;;;;;8.80;6.47;;;11.30;99.90;;;;;;4993392;28;20058;-52
2023/02/17 10:39:32;;;;;;;6.20;5.25;;;11.30;99.90;;;;;;4992712;28;20069;-49
2023/02/17 10:41:59;;;;;;;8.50;6.80;;;11.40;99.90;;;;;;4993716;28;20035;-49
2023/02/17 10:44:24;;;;;;;7.38;5.65;;;11.40;99.90;;;;;;4993915;28;20077;-54
2023/02/17 10:46:52;;;;;;;9.07;6.88;;;11.40;99.90;;;;;;4985030;28;20442;-54
2023/02/17 10:49:29;;;;;;;22.90;6.47;;;11.50;99.90;;;;;;4992245;28;20072;-52
2023/02/17 10:51:59;;;;;;;6.10;5.25;;;11.60;99.90;;;;;;4993609;28;20045;-52
2023/02/17 10:54:34;;;;;;;6.30;5.45;;;11.60;99.90;;;;;;4993232;28;20113;-47
2023/02/17 10:57:03;;;;;;;9.35;5.50;;;11.60;99.90;;;;;;4992062;28;20022;-47
2023/02/17 10:59:33;;;;;;;6.75;4.93;;;11.60;99.90;;;;;;4993670;28;20022;-49
2023/02/17 11:02:15;;;;;;;8.50;6.28;;;11.70;99.90;;;;;;4993376;28;20038;-47
2023/02/17 11:04:43;;;;;;;7.57;4.68;;;11.70;99.90;;;;;;4993386;28;20038;-47
2023/02/17 11:07:12;;;;;;;5.35;4.50;;;11.80;99.90;;;;;;4992112;28;20071;-47
2023/02/17 11:09:44;;;;;;;3.95;3.60;;;11.80;99.90;;;;;;4992979;28;20026;-50
2023/02/17 11:12:37;;;;;;;5.78;3.75;;;11.90;99.90;;;;;;4993409;28;20041;-46
2023/02/17 11:15:04;;;;;;;4.07;3.67;;;12.00;99.90;;;;;;4992989;28;20486;-47
2023/02/17 11:17:38;;;;;;;4.25;3.85;;;12.10;99.90;;;;;;4993262;28;20038;-51
2023/02/17 11:20:25;;;;;;;6.03;3.90;;;12.10;99.90;;;;;;4993371;28;20018;-49
2023/02/17 11:23:15;;;;;;;4.70;4.05;;;12.20;99.90;;;;;;4975029;28;20029;-46
2023/02/17 11:25:42;;;;;;;4.40;4.00;;;12.20;99.90;;;;;;4973259;28;20019;-48
2023/02/17 11:28:13;;;;;;;4.35;3.95;;;12.30;99.90;;;;;;4974281;28;20023;-50
2023/02/17 11:30:48;;;;;;;4.18;3.78;;;12.40;99.90;;;;;;4972663;28;20022;-48
2023/02/17 11:33:19;;;;;;;4.35;3.95;;;12.40;99.90;;;;;;4973838;28;20038;-55
2023/02/17 11:35:51;;;;;;;4.05;3.65;;;12.50;99.90;;;;;;4973725;28;20042;-46
2023/02/17 11:38:20;;;;;;;4.40;4.00;;;12.50;99.90;;;;;;4973364;28;20568;-47
2023/02/17 11:41:12;;;;;;;3.50;3.20;;;12.50;99.90;;;;;;4973688;28;20306;-50
2023/02/17 11:43:38;;;;;;;3.63;3.33;;;12.60;99.90;;;;;;4990484;28;20046;-48
2023/02/17 11:46:19;;;;;;;4.40;3.55;;;12.60;99.90;;;;;;4992837;28;20109;-45
2023/02/17 11:49:02;;;;;;;5.53;3.67;;;12.70;99.90;;;;;;4983097;28;20023;-50
2023/02/17 11:51:39;;;;;;;4.72;4.00;;;12.70;99.90;;;;;;4973733;28;20076;-48
2023/02/17 11:54:38;;;;;;;3.80;3.50;;;12.70;99.90;;;;;;4973505;28;20033;-46
2023/02/17 11:57:48;;;;;;;4.43;2.90;;;12.80;99.90;;;;;;4992533;28;20117;-48
2023/02/17 12:00:14;;;;;;;3.88;3.17;;;12.90;99.90;;;;;;4993123;28;20022;-50
2023/02/17 12:02:58;;;;;;;3.47;3.15;;;12.80;99.90;;;;;;4993239;28;20056;-49
2023/02/17 12:05:51;;;;;;;2.60;2.50;;;12.80;99.90;;;;;;4992281;28;20573;-47
2023/02/17 12:09:09;;;;;;;3.03;2.78;;;12.90;99.90;;;;;;4991547;28;20076;-48
2023/02/17 12:11:49;;;;;;;2.38;2.25;;;13.00;99.90;;;;;;4981413;28;20061;-47
2023/02/17 12:14:44;;;;;;;2.40;2.30;;;13.10;99.90;;;;;;4992123;28;20465;-48
2023/02/17 12:17:41;;;;;;;2.50;2.30;;;13.20;99.90;;;;;;4989076;28;20034;-50
2023/02/17 12:20:19;;;;;;;;;;;13.30;99.90;;;;;;4983202;28;20041;-50
2023/02/17 12:23:13;;;;;;;3.03;2.25;;;13.40;99.90;;;;;;4989518;28;20400;-48
2023/02/17 12:25:49;;;;;;;1.67;1.60;;;13.40;99.90;;;;;;4992159;28;20389;-47
2023/02/17 12:29:00;;;;;;;1.50;1.40;;;13.40;99.90;;;;;;4990449;28;20058;-47
2023/02/17 12:31:36;;;;;;;1.80;1.70;;;13.40;99.90;;;;;;4981508;28;20038;-48
2023/02/17 12:34:08;;;;;;;1.33;1.33;;;13.50;99.90;;;;;;4991528;28;20030;-49
2023/02/17 12:36:37;;;;;;;1.55;1.45;;;13.50;99.90;;;;;;4992110;28;20629;-46
2023/02/17 12:39:16;;;;;;;1.92;1.77;;;13.60;99.90;;;;;;4990791;28;20549;-47
2023/02/17 12:41:47;;;;;;;2.08;1.88;;;13.60;99.90;;;;;;4991805;28;20030;-50
2023/02/17 12:44:19;;;;;;;1.90;1.80;;;13.70;99.90;;;;;;4980570;28;20031;-48
2023/02/17 12:46:49;;;;;;;1.80;1.70;;;13.70;99.90;;;;;;4991487;28;20019;-50
2023/02/17 12:49:28;;;;;;;1.83;1.73;;;13.70;99.90;;;;;;4992150;28;20022;-51
2023/02/17 12:52:11;;;;;;;1.85;1.75;;;13.80;99.90;;;;;;4991348;28;20177;-51
2023/02/17 12:54:53;;;;;;;1.98;1.88;;;13.80;99.90;;;;;;4992107;28;20034;-54
2023/02/17 12:57:29;;;;;;;2.65;2.22;;;13.80;99.90;;;;;;4991990;28;20113;-51
2023/02/17 12:59:55;;;;;;;2.65;2.47;;;13.80;99.90;;;;;;4992174;28;20034;-47
2023/02/17 13:02:24;;;;;;;2.85;2.60;;;13.80;99.90;;;;;;4991432;28;20041;-49
2023/02/17 13:04:52;;;;;;;2.00;1.90;;;13.80;99.90;;;;;;4990308;28;20018;-49